Time;durP1;ratioP1;P1;durP2;ratioP2;P2;SDS_P1;SDS_P2;PMS_P1;PMS_P2;Temp;Humidity;BMP_temperature;BMP_pressure;BME280_temperature;BME280_humidity;BME280_pressure;Samples;Min_cycle;Max_cycle;Signal;HPM_P1;HPM_P2
2022/10/09 00:01:08;;;;;;;126.30;91.93;;;12.30;99.90;;;;;;5075362;28;20021;-57
2022/10/09 00:03:35;;;;;;;122.95;90.40;;;12.40;99.90;;;;;;5075215;28;20032;-57
2022/10/09 00:06:02;;;;;;;130.73;91.88;;;12.40;99.90;;;;;;5075295;28;20060;-57
2022/10/09 00:08:28;;;;;;;131.95;94.13;;;12.40;99.90;;;;;;5075407;28;20033;-57
2022/10/09 00:10:54;;;;;;;129.38;92.28;;;12.30;99.90;;;;;;5075374;28;20028;-57
2022/10/09 00:13:20;;;;;;;124.47;90.88;;;12.30;99.90;;;;;;5074917;28;20048;-57
2022/10/09 00:15:46;;;;;;;130.77;89.60;;;12.30;99.90;;;;;;5075332;28;20043;-57
2022/10/09 00:18:14;;;;;;;124.47;88.20;;;12.30;99.90;;;;;;5075065;28;20466;-57
2022/10/09 00:20:43;;;;;;;128.90;90.55;;;12.30;99.90;;;;;;5073856;28;20024;-57
2022/10/09 00:23:10;;;;;;;124.90;89.03;;;12.30;99.90;;;;;;5075091;28;20553;-57
2022/10/09 00:25:36;;;;;;;120.93;86.80;;;12.30;99.90;;;;;;5088801;28;20040;-57
2022/10/09 00:28:03;;;;;;;127.35;91.57;;;12.20;99.90;;;;;;5095105;28;20035;-57
2022/10/09 00:30:29;;;;;;;120.18;88.55;;;12.20;99.90;;;;;;5095293;28;20020;-57
2022/10/09 00:32:56;;;;;;;110.53;84.05;;;12.20;99.90;;;;;;5094831;28;20030;-57
2022/10/09 00:35:22;;;;;;;121.90;87.53;;;12.20;99.90;;;;;;5095155;28;20039;-57
2022/10/09 00:37:48;;;;;;;118.43;85.20;;;12.30;99.90;;;;;;5095190;28;20024;-57
2022/10/09 00:40:15;;;;;;;124.97;87.82;;;12.30;99.90;;;;;;5094917;28;20062;-58
2022/10/09 00:42:44;;;;;;;114.28;84.47;;;12.20;99.90;;;;;;5095103;28;20124;-57
2022/10/09 00:45:18;;;;;;;118.90;86.40;;;12.20;99.90;;;;;;5092747;28;20022;-57
2022/10/09 00:47:49;;;;;;;121.80;85.28;;;12.20;99.90;;;;;;5073871;28;20501;-57
2022/10/09 00:50:18;;;;;;;124.85;85.35;;;12.20;99.90;;;;;;5074744;28;20493;-57
2022/10/09 00:52:44;;;;;;;107.28;81.95;;;12.20;99.90;;;;;;5074466;28;20035;-57
2022/10/09 00:55:12;;;;;;;108.85;82.88;;;12.30;99.90;;;;;;5074567;28;20060;-57
2022/10/09 00:57:40;;;;;;;115.93;83.65;;;12.30;99.90;;;;;;5074692;28;20110;-58
2022/10/09 01:00:09;;;;;;;117.13;84.20;;;12.30;99.90;;;;;;5074406;28;20028;-57
2022/10/09 01:02:36;;;;;;;109.40;81.40;;;12.30;99.90;;;;;;5074529;28;20033;-57
2022/10/09 01:05:03;;;;;;;110.93;81.78;;;12.20;99.90;;;;;;5074333;28;20086;-57
2022/10/09 01:07:47;;;;;;;118.40;85.53;;;12.20;99.90;;;;;;5074464;28;20025;-57
2022/10/09 01:10:40;;;;;;;104.28;81.68;;;12.20;99.90;;;;;;5074408;28;20150;-57
2022/10/09 01:13:15;;;;;;;119.30;84.15;;;12.20;99.90;;;;;;5074394;28;20052;-57
2022/10/09 01:15:52;;;;;;;118.35;83.25;;;12.10;99.90;;;;;;5074291;28;20167;-57
2022/10/09 01:18:24;;;;;;;126.57;85.82;;;12.10;99.90;;;;;;5074275;28;20032;-57
2022/10/09 01:21:06;;;;;;;119.50;86.13;;;12.10;99.90;;;;;;5074207;28;20036;-57
2022/10/09 01:23:51;;;;;;;116.45;87.20;;;12.20;99.90;;;;;;5074382;28;20032;-57
2022/10/09 01:26:38;;;;;;;112.72;82.43;;;12.00;99.90;;;;;;5093701;28;20541;-57
2022/10/09 01:29:07;;;;;;;118.68;83.43;;;12.10;99.90;;;;;;5094219;28;20484;-58
2022/10/09 01:31:39;;;;;;;126.60;87.13;;;12.10;99.90;;;;;;5094366;28;20440;-58
2022/10/09 01:34:06;;;;;;;120.15;84.13;;;12.10;99.90;;;;;;5094305;28;20381;-57
2022/10/09 01:36:34;;;;;;;120.20;87.05;;;12.20;99.90;;;;;;5094315;28;20466;-58
2022/10/09 01:39:03;;;;;;;114.82;83.82;;;12.20;99.90;;;;;;5094329;28;20038;-57
2022/10/09 01:41:29;;;;;;;112.43;82.75;;;12.20;99.90;;;;;;5094286;28;20097;-57
2022/10/09 01:43:55;;;;;;;127.90;87.90;;;12.30;99.90;;;;;;5094287;28;20036;-57
2022/10/09 01:46:28;;;;;;;117.68;84.72;;;12.30;99.90;;;;;;5081923;28;20035;-57
2022/10/09 01:49:04;;;;;;;117.90;86.50;;;12.40;99.90;;;;;;5074135;28;20036;-57
2022/10/09 01:51:43;;;;;;;115.82;82.18;;;12.50;99.90;;;;;;5073857;28;20029;-57
2022/10/09 01:54:12;;;;;;;121.15;88.18;;;12.50;99.90;;;;;;5073835;28;20470;-57
2022/10/09 01:56:38;;;;;;;122.60;85.25;;;12.50;99.90;;;;;;5073971;28;20103;-58
2022/10/09 01:59:16;;;;;;;129.38;88.25;;;12.60;99.90;;;;;;5074952;28;20028;-57
2022/10/09 02:01:43;;;;;;;129.00;86.07;;;12.60;99.90;;;;;;5077847;28;20178;-57
2022/10/09 02:04:12;;;;;;;117.22;83.55;;;12.60;99.90;;;;;;5077927;28;20035;-57
2022/10/09 02:06:39;;;;;;;111.88;81.70;;;12.70;99.90;;;;;;5077758;28;20033;-57
2022/10/09 02:09:10;;;;;;;116.57;80.90;;;12.70;99.90;;;;;;5077769;28;20058;-57
2022/10/09 02:11:38;;;;;;;108.28;79.05;;;12.70;99.90;;;;;;5077576;28;20028;-57
2022/10/09 02:14:04;;;;;;;110.22;77.50;;;12.70;99.90;;;;;;5077381;28;20567;-57
2022/10/09 02:16:40;;;;;;;110.38;79.55;;;12.80;99.90;;;;;;5077563;28;20047;-57
2022/10/09 02:19:40;;;;;;;125.30;83.28;;;12.80;99.90;;;;;;5077478;28;20025;-57
2022/10/09 02:22:10;;;;;;;110.75;77.88;;;12.80;99.90;;;;;;5077521;28;20024;-57
2022/10/09 02:24:39;;;;;;;123.97;84.22;;;12.90;99.90;;;;;;5082918;28;20056;-57
2022/10/09 02:27:06;;;;;;;122.35;81.63;;;13.00;99.90;;;;;;5097695;28;20683;-58
2022/10/09 02:29:32;;;;;;;108.22;75.95;;;13.00;99.90;;;;;;5097562;28;20027;-57
2022/10/09 02:31:58;;;;;;;106.18;75.18;;;13.00;99.90;;;;;;5097464;28;20473;-57
2022/10/09 02:34:24;;;;;;;102.57;75.55;;;13.00;99.90;;;;;;5097294;28;20533;-57
2022/10/09 02:36:50;;;;;;;104.50;75.57;;;13.00;99.90;;;;;;5097483;28;20109;-58
2022/10/09 02:39:16;;;;;;;109.43;74.95;;;13.10;99.90;;;;;;5097264;28;20032;-58
2022/10/09 02:41:42;;;;;;;112.50;74.35;;;13.10;99.90;;;;;;5097250;28;20059;-58
2022/10/09 02:44:08;;;;;;;113.95;77.22;;;13.20;99.90;;;;;;5097394;28;20028;-57
2022/10/09 02:46:34;;;;;;;119.47;80.25;;;13.20;99.90;;;;;;5083146;28;20094;-57
2022/10/09 02:49:00;;;;;;;109.07;77.28;;;13.20;99.90;;;;;;5076936;28;20035;-57
2022/10/09 02:51:26;;;;;;;114.10;78.20;;;13.20;99.90;;;;;;5076983;28;20116;-57
2022/10/09 02:53:53;;;;;;;120.95;80.28;;;13.10;99.90;;;;;;5076614;28;20390;-57
2022/10/09 02:56:22;;;;;;;115.07;79.20;;;13.10;99.90;;;;;;5076738;28;20028;-58
2022/10/09 02:58:48;;;;;;;119.13;77.57;;;13.10;99.90;;;;;;5076848;28;20043;-57
2022/10/09 03:01:14;;;;;;;114.20;77.20;;;13.10;99.90;;;;;;5075338;28;20025;-57
2022/10/09 03:03:40;;;;;;;107.50;75.57;;;13.20;99.90;;;;;;5076910;28;20047;-58
2022/10/09 03:06:09;;;;;;;112.63;76.63;;;13.20;99.90;;;;;;5076688;28;20717;-58
2022/10/09 03:08:37;;;;;;;113.28;77.82;;;13.10;99.90;;;;;;5076413;28;20039;-57
2022/10/09 03:11:03;;;;;;;122.07;78.82;;;13.20;99.90;;;;;;5075834;28;20028;-58
2022/10/09 03:13:30;;;;;;;127.43;84.18;;;13.40;99.90;;;;;;5076270;28;20056;-57
2022/10/09 03:16:07;;;;;;;122.07;81.22;;;13.40;99.90;;;;;;5076470;28;20020;-58
2022/10/09 03:18:34;;;;;;;114.65;81.07;;;13.40;99.90;;;;;;5076396;28;20036;-57
2022/10/09 03:21:03;;;;;;;117.97;81.28;;;13.30;99.90;;;;;;5076386;28;20513;-58
2022/10/09 03:23:30;;;;;;;121.28;83.38;;;13.20;99.90;;;;;;5076242;28;20510;-58
2022/10/09 03:25:57;;;;;;;118.63;82.82;;;13.20;99.90;;;;;;5092724;28;20081;-58
2022/10/09 03:28:24;;;;;;;122.00;81.28;;;13.20;99.90;;;;;;5096740;28;20510;-58
2022/10/09 03:30:51;;;;;;;121.32;81.63;;;13.20;99.90;;;;;;5096359;28;20106;-58
2022/10/09 03:33:17;;;;;;;115.57;80.90;;;13.20;99.90;;;;;;5096313;28;20036;-58
2022/10/09 03:35:45;;;;;;;120.05;81.03;;;13.20;99.90;;;;;;5096415;28;20393;-58
2022/10/09 03:38:10;;;;;;;117.85;82.95;;;13.30;99.90;;;;;;5096189;28;20355;-57
2022/10/09 03:40:36;;;;;;;117.75;83.13;;;13.30;99.90;;;;;;5096179;28;20059;-58
2022/10/09 03:43:02;;;;;;;115.47;82.78;;;13.40;99.90;;;;;;5096223;28;20055;-58
2022/10/09 03:45:28;;;;;;;126.53;85.20;;;13.40;99.90;;;;;;5091142;28;20023;-57
2022/10/09 03:47:54;;;;;;;124.25;82.57;;;13.30;99.90;;;;;;5075830;28;20035;-58
2022/10/09 03:50:20;;;;;;;123.93;86.55;;;13.30;99.90;;;;;;5075764;28;20032;-57
2022/10/09 03:52:46;;;;;;;117.70;85.80;;;13.30;99.90;;;;;;5075507;28;20025;-57
2022/10/09 03:55:12;;;;;;;116.22;82.57;;;13.30;99.90;;;;;;5075805;28;20032;-57
2022/10/09 03:57:38;;;;;;;122.63;86.65;;;13.30;99.90;;;;;;5075570;28;20020;-57
2022/10/09 04:00:06;;;;;;;129.88;88.38;;;13.40;99.90;;;;;;5075863;28;20477;-58
2022/10/09 04:02:32;;;;;;;122.60;86.10;;;13.30;99.90;;;;;;5075518;28;20028;-58
2022/10/09 04:04:58;;;;;;;122.57;87.75;;;13.40;99.90;;;;;;5075239;28;20028;-58
2022/10/09 04:07:24;;;;;;;124.30;91.13;;;13.40;99.90;;;;;;5075397;28;20030;-57
2022/10/09 04:09:50;;;;;;;126.03;87.50;;;13.40;99.90;;;;;;5075302;28;20036;-57
2022/10/09 04:12:16;;;;;;;121.95;86.28;;;13.30;99.90;;;;;;5075422;28;20075;-57
2022/10/09 04:14:42;;;;;;;127.15;88.63;;;13.40;99.90;;;;;;5075289;28;20356;-57
2022/10/09 04:17:08;;;;;;;124.97;87.80;;;13.40;99.90;;;;;;5075327;28;20035;-57
2022/10/09 04:19:35;;;;;;;124.28;86.15;;;13.40;99.90;;;;;;5075373;28;20100;-57
2022/10/09 04:22:01;;;;;;;121.70;85.82;;;13.40;99.90;;;;;;5074599;28;20051;-57
2022/10/09 04:24:27;;;;;;;121.70;86.55;;;13.30;99.90;;;;;;5078717;28;20449;-57
2022/10/09 04:26:53;;;;;;;113.68;84.88;;;13.40;99.90;;;;;;5095349;28;20028;-57
2022/10/09 04:29:19;;;;;;;117.70;84.70;;;13.30;99.90;;;;;;5095169;28;20438;-57
2022/10/09 04:31:45;;;;;;;124.00;87.57;;;13.30;99.90;;;;;;5095311;28;20109;-57
2022/10/09 04:34:11;;;;;;;118.63;85.22;;;13.30;99.90;;;;;;5094939;28;20071;-57
2022/10/09 04:36:37;;;;;;;118.25;85.65;;;13.40;99.90;;;;;;5095240;28;20028;-57
2022/10/09 04:39:03;;;;;;;129.57;89.72;;;13.50;99.90;;;;;;5095271;28;20028;-57
2022/10/09 04:41:29;;;;;;;131.38;88.72;;;13.50;99.90;;;;;;5094953;28;20026;-57
2022/10/09 04:43:55;;;;;;;117.82;81.20;;;13.60;99.90;;;;;;5095065;28;20038;-57
2022/10/09 04:46:22;;;;;;;117.95;81.65;;;13.60;99.90;;;;;;5082791;28;20066;-57
2022/10/09 04:48:49;;;;;;;112.82;82.05;;;13.60;99.90;;;;;;5074606;28;20086;-57
2022/10/09 04:51:16;;;;;;;118.65;83.32;;;13.60;99.90;;;;;;5074732;28;20497;-57
2022/10/09 04:53:42;;;;;;;114.97;82.57;;;13.70;99.90;;;;;;5074506;28;20440;-58
2022/10/09 04:56:11;;;;;;;112.60;83.28;;;13.70;99.90;;;;;;5074664;28;20038;-58
2022/10/09 04:58:39;;;;;;;121.57;86.00;;;13.70;99.90;;;;;;5074561;28;20058;-57
2022/10/09 05:01:13;;;;;;;116.47;83.55;;;13.60;99.90;;;;;;5074598;28;20023;-58
2022/10/09 05:03:39;;;;;;;114.55;81.57;;;13.50;99.90;;;;;;5074505;28;20018;-57
2022/10/09 05:06:08;;;;;;;117.32;85.38;;;13.60;99.90;;;;;;5074385;28;20386;-57
2022/10/09 05:08:35;;;;;;;120.70;85.35;;;13.60;99.90;;;;;;5074474;28;20357;-58
2022/10/09 05:11:07;;;;;;;119.28;84.70;;;13.50;99.90;;;;;;5074435;28;20039;-57
2022/10/09 05:13:35;;;;;;;118.72;85.75;;;13.50;99.90;;;;;;5074280;28;20040;-58
2022/10/09 05:16:03;;;;;;;107.85;81.03;;;13.60;99.90;;;;;;5074448;28;20386;-58
2022/10/09 05:18:29;;;;;;;116.65;82.30;;;13.60;99.90;;;;;;5074114;28;20036;-58
2022/10/09 05:20:55;;;;;;;131.15;87.78;;;13.60;99.90;;;;;;5074446;28;20029;-57
2022/10/09 05:23:21;;;;;;;130.18;89.40;;;13.60;99.90;;;;;;5074310;28;20107;-57
2022/10/09 05:25:58;;;;;;;121.50;85.03;;;13.70;99.90;;;;;;5089512;28;20032;-57
2022/10/09 05:28:25;;;;;;;125.47;86.63;;;13.70;99.90;;;;;;5094575;28;20032;-58
2022/10/09 05:30:51;;;;;;;127.78;85.10;;;13.70;99.90;;;;;;5094327;28;20366;-57
2022/10/09 05:33:17;;;;;;;124.35;86.53;;;13.70;99.90;;;;;;5092909;28;20169;-58
2022/10/09 05:35:55;;;;;;;132.30;89.22;;;13.70;99.90;;;;;;5098505;28;20078;-57
2022/10/09 05:38:23;;;;;;;124.05;88.82;;;13.70;99.90;;;;;;5098470;28;20439;-57
2022/10/09 05:40:57;;;;;;;122.10;85.15;;;13.70;99.90;;;;;;5098476;28;20032;-57
2022/10/09 05:43:28;;;;;;;135.02;94.75;;;13.80;99.90;;;;;;5098540;28;20039;-57
2022/10/09 05:45:54;;;;;;;147.35;100.75;;;13.80;99.90;;;;;;5090109;28;20087;-58
2022/10/09 05:48:20;;;;;;;146.20;95.72;;;13.90;99.90;;;;;;5078125;28;20028;-58
2022/10/09 05:50:47;;;;;;;134.73;87.55;;;13.90;99.90;;;;;;5078237;28;20094;-58
2022/10/09 05:53:13;;;;;;;123.47;85.28;;;13.90;99.90;;;;;;5077797;28;20025;-58
2022/10/09 05:55:39;;;;;;;130.43;89.03;;;13.90;99.90;;;;;;5078096;28;20021;-57
2022/10/09 05:58:05;;;;;;;132.88;88.60;;;14.00;99.90;;;;;;5077875;28;20025;-58
2022/10/09 06:00:31;;;;;;;120.97;86.90;;;14.10;99.90;;;;;;5077785;28;20031;-58
2022/10/09 06:02:57;;;;;;;129.18;87.22;;;14.10;99.90;;;;;;5077757;28;20046;-58
2022/10/09 06:05:23;;;;;;;137.00;93.40;;;14.20;99.90;;;;;;5077746;28;20088;-58
2022/10/09 06:07:49;;;;;;;160.57;98.18;;;14.20;99.90;;;;;;5077547;28;20024;-57
2022/10/09 06:10:15;;;;;;;169.65;102.22;;;14.40;99.90;;;;;;5077800;28;20021;-58
2022/10/09 06:12:41;;;;;;;166.70;97.95;;;14.40;99.90;;;;;;5077465;28;20043;-57
2022/10/09 06:15:07;;;;;;;195.45;104.60;;;14.40;99.90;;;;;;5077408;28;20040;-58
2022/10/09 06:17:33;;;;;;;177.57;103.32;;;14.40;99.90;;;;;;5077477;28;20029;-58
2022/10/09 06:19:59;;;;;;;184.00;103.28;;;14.40;99.90;;;;;;5077775;28;20020;-58
2022/10/09 06:22:25;;;;;;;186.63;102.68;;;14.40;99.90;;;;;;5077529;28;20051;-57
2022/10/09 06:24:51;;;;;;;183.48;103.75;;;14.40;99.90;;;;;;5085084;28;20032;-58
2022/10/09 06:27:17;;;;;;;192.90;105.95;;;14.40;99.90;;;;;;5097461;28;20035;-58
2022/10/09 06:29:43;;;;;;;178.05;103.82;;;14.50;99.90;;;;;;5097413;28;20067;-58
2022/10/09 06:32:09;;;;;;;184.63;103.82;;;14.60;99.90;;;;;;5098007;28;20024;-58
2022/10/09 06:34:35;;;;;;;190.00;106.82;;;14.60;99.90;;;;;;5097165;28;20040;-57
2022/10/09 06:37:00;;;;;;;199.00;108.72;;;14.70;99.90;;;;;;5097351;28;20036;-58
2022/10/09 06:39:26;;;;;;;197.98;106.70;;;14.70;99.90;;;;;;5097367;28;20081;-58
2022/10/09 06:41:52;;;;;;;185.35;102.18;;;14.80;99.90;;;;;;5097130;28;20032;-58
2022/10/09 06:44:42;;;;;;;187.27;104.80;;;14.80;99.90;;;;;;5097385;28;20028;-58
2022/10/09 06:47:07;;;;;;;191.07;106.93;;;14.80;99.90;;;;;;5077412;28;20443;-58
2022/10/09 06:49:33;;;;;;;181.25;99.93;;;14.60;99.90;;;;;;5077156;28;20079;-58
2022/10/09 06:51:59;;;;;;;188.35;104.57;;;14.70;99.90;;;;;;5076882;28;20024;-57
2022/10/09 06:54:25;;;;;;;195.48;100.53;;;14.90;99.90;;;;;;5076632;28;20028;-58
2022/10/09 06:56:54;;;;;;;177.82;101.32;;;15.00;99.90;;;;;;5076794;28;20549;-57
2022/10/09 06:59:20;;;;;;;181.50;99.40;;;15.20;99.90;;;;;;5076707;28;20596;-58
2022/10/09 07:01:46;;;;;;;175.30;99.07;;;15.30;99.90;;;;;;5076765;28;20240;-58
2022/10/09 07:04:13;;;;;;;170.18;96.05;;;15.40;99.90;;;;;;5076563;28;20111;-58
2022/10/09 07:06:41;;;;;;;162.15;94.75;;;15.40;99.90;;;;;;5076606;28;20025;-58
2022/10/09 07:09:10;;;;;;;175.60;97.82;;;15.40;99.90;;;;;;5076810;28;20063;-57
2022/10/09 07:11:38;;;;;;;174.02;97.32;;;15.40;99.90;;;;;;5076449;28;20040;-58
2022/10/09 07:14:06;;;;;;;162.30;92.65;;;15.50;99.90;;;;;;5076356;28;20478;-58
2022/10/09 07:16:35;;;;;;;172.60;96.10;;;15.50;99.90;;;;;;5076214;28;20021;-58
2022/10/09 07:19:06;;;;;;;185.40;99.13;;;15.60;99.90;;;;;;5076394;28;20486;-58
2022/10/09 07:21:35;;;;;;;184.85;101.55;;;15.70;99.90;;;;;;5076496;28;20031;-58
2022/10/09 07:24:02;;;;;;;181.70;98.82;;;15.80;99.90;;;;;;5076757;28;20029;-58
2022/10/09 07:26:30;;;;;;;179.85;99.93;;;15.90;99.90;;;;;;5096546;28;20026;-58
2022/10/09 07:28:56;;;;;;;170.95;99.28;;;16.10;99.90;;;;;;5096209;28;20470;-57
2022/10/09 07:31:23;;;;;;;176.95;101.47;;;16.10;99.90;;;;;;5096492;28;20031;-58
2022/10/09 07:33:50;;;;;;;178.73;98.32;;;16.30;99.90;;;;;;5096159;28;20070;-58
2022/10/09 07:36:16;;;;;;;195.45;103.60;;;16.40;99.90;;;;;;5096290;28;20301;-58
2022/10/09 07:38:43;;;;;;;241.05;118.30;;;16.50;99.90;;;;;;5096092;28;20020;-58
2022/10/09 07:41:11;;;;;;;251.50;119.90;;;16.60;99.90;;;;;;5096152;28;20054;-58
2022/10/09 07:43:39;;;;;;;263.25;126.03;;;16.70;99.90;;;;;;5096340;28;20036;-57
2022/10/09 07:46:09;;;;;;;267.10;121.22;;;16.80;99.90;;;;;;5086282;28;20028;-58
2022/10/09 07:48:34;;;;;;;261.38;122.60;;;17.00;99.90;;;;;;5075570;28;20032;-58
2022/10/09 07:51:16;;;;;;;309.70;130.27;;;17.10;99.90;;;;;;5075852;28;20036;-58
2022/10/09 07:53:42;;;;;;;315.08;133.07;;;17.30;99.90;;;;;;5075598;28;20444;-58
2022/10/09 07:56:14;;;;;;;303.70;127.82;;;17.40;99.90;;;;;;5075612;28;20021;-58
2022/10/09 07:58:41;;;;;;;302.33;127.85;;;17.40;99.90;;;;;;5075509;28;20020;-58
2022/10/09 08:01:07;;;;;;;293.70;127.57;;;17.40;99.90;;;;;;5075508;28;20059;-58
2022/10/09 08:03:35;;;;;;;312.83;128.82;;;17.30;99.90;;;;;;5075507;28;20043;-58
2022/10/09 08:06:01;;;;;;;312.70;131.13;;;17.30;99.90;;;;;;5075443;28;20386;-58
2022/10/09 08:08:27;;;;;;;311.85;128.73;;;17.30;99.90;;;;;;5075361;28;20042;-58
2022/10/09 08:10:53;;;;;;;333.67;133.88;;;17.30;99.90;;;;;;5075384;28;20071;-58
2022/10/09 08:13:19;;;;;;;310.60;130.55;;;17.20;99.90;;;;;;5075221;28;20076;-58
2022/10/09 08:15:45;;;;;;;302.75;126.40;;;17.40;99.90;;;;;;5075070;28;20037;-58
2022/10/09 08:18:11;;;;;;;319.42;133.40;;;17.50;99.90;;;;;;5075331;28;20048;-58
2022/10/09 08:20:38;;;;;;;325.50;132.40;;;17.60;99.90;;;;;;5075266;28;20033;-57
2022/10/09 08:23:04;;;;;;;311.60;126.22;;;18.00;99.90;;;;;;5075027;28;20024;-58
2022/10/09 08:25:35;;;;;;;298.35;123.93;;;18.30;99.90;;;;;;5088132;28;20020;-57
2022/10/09 08:28:01;;;;;;;317.67;124.55;;;18.70;99.90;;;;;;5095300;28;20032;-58
2022/10/09 08:30:27;;;;;;;305.17;121.75;;;18.80;99.90;;;;;;5095206;28;20039;-58
2022/10/09 08:32:53;;;;;;;293.52;116.32;;;18.90;99.90;;;;;;5095278;28;20028;-58
2022/10/09 08:35:19;;;;;;;287.92;113.90;;;18.90;99.90;;;;;;5095146;28;20059;-58
2022/10/09 08:37:45;;;;;;;282.05;111.55;;;18.80;99.90;;;;;;5095108;28;20023;-58
2022/10/09 08:40:20;;;;;;;267.88;106.13;;;19.00;99.90;;;;;;5095493;28;20024;-58
2022/10/09 08:42:55;;;;;;;226.80;94.43;;;19.30;99.90;;;;;;5094899;28;20557;-57
2022/10/09 08:45:21;;;;;;;208.88;89.25;;;20.00;99.90;;;;;;5091154;28;20424;-58
2022/10/09 08:47:55;;;;;;;197.18;84.13;;;20.60;99.90;;;;;;5075054;28;20063;-58
2022/10/09 08:50:28;;;;;;;162.70;74.47;;;20.80;99.90;;;;;;5074696;28;20063;-58
2022/10/09 08:53:24;;;;;;;123.65;61.20;;;21.00;99.90;;;;;;5074527;28;20062;-57
2022/10/09 08:55:55;;;;;;;127.75;61.55;;;21.10;99.90;;;;;;5074658;28;20535;-57
2022/10/09 08:58:23;;;;;;;125.80;61.63;;;21.40;99.90;;;;;;5074524;28;20032;-57
2022/10/09 09:01:25;;;;;;;80.93;46.88;;;21.90;99.90;;;;;;5074732;28;20046;-57
2022/10/09 09:03:54;;;;;;;113.40;58.05;;;22.10;98.10;;;;;;4992699;28;20090;-57
2022/10/09 09:06:25;;;;;;;94.10;53.47;;;22.40;96.60;;;;;;4992730;28;20046;-57
2022/10/09 09:09:04;;;;;;;88.50;51.35;;;22.60;94.60;;;;;;4992237;28;20042;-57
2022/10/09 09:11:59;;;;;;;86.93;47.92;;;23.10;94.80;;;;;;4992760;28;20042;-58
2022/10/09 09:14:50;;;;;;;57.35;33.28;;;24.30;91.10;;;;;;4992831;28;20066;-58
2022/10/09 09:17:33;;;;;;;46.60;31.38;;;24.50;81.40;;;;;;4992596;28;20481;-58
2022/10/09 09:20:19;;;;;;;36.67;26.45;;;24.80;81.20;;;;;;4992627;28;20178;-58
2022/10/09 09:22:47;;;;;;;35.05;25.73;;;24.40;73.20;;;;;;4992517;28;20110;-58
2022/10/09 09:25:22;;;;;;;36.33;25.23;;;24.00;75.00;;;;;;5002811;28;20073;-58
2022/10/09 09:27:51;;;;;;;39.97;26.50;;;23.80;75.40;;;;;;5012174;28;20088;-58
2022/10/09 09:30:39;;;;;;;36.95;25.50;;;23.70;77.30;;;;;;5012096;28;20528;-58
2022/10/09 09:33:11;;;;;;;37.85;25.98;;;23.40;75.80;;;;;;5011951;28;20037;-58
2022/10/09 09:36:08;;;;;;;34.22;25.45;;;23.10;76.30;;;;;;5012288;28;20064;-58
2022/10/09 09:38:35;;;;;;;37.60;25.20;;;23.00;77.80;;;;;;5078054;28;20071;-58
2022/10/09 09:41:03;;;;;;;28.83;23.67;;;22.90;78.60;;;;;;5094049;28;20067;-58
2022/10/09 09:43:29;;;;;;;29.67;22.25;;;23.30;80.40;;;;;;5094509;28;20086;-58
2022/10/09 09:45:58;;;;;;;34.20;23.35;;;23.80;77.60;;;;;;5085949;28;20055;-58
2022/10/09 09:48:36;;;;;;;32.15;23.05;;;23.90;73.30;;;;;;5074041;28;20429;-58
2022/10/09 09:51:11;;;;;;;34.35;23.50;;;23.90;74.30;;;;;;5074269;28;20028;-58
2022/10/09 09:53:49;;;;;;;34.75;22.42;;;23.80;73.20;;;;;;5073902;28;20036;-58
2022/10/09 09:56:16;;;;;;;30.95;22.70;;;23.10;76.30;;;;;;5073996;28;20423;-58
2022/10/09 09:58:52;;;;;;;30.05;22.25;;;22.90;76.80;;;;;;5074240;28;20029;-58
2022/10/09 10:01:27;;;;;;;33.08;22.58;;;22.90;78.10;;;;;;5073963;28;20036;-58
2022/10/09 10:03:57;;;;;;;27.27;19.90;;;22.40;79.10;;;;;;5073915;28;20029;-58
2022/10/09 10:06:40;;;;;;;36.13;25.92;;;22.40;80.20;;;;;;5073869;28;20111;-58
2022/10/09 10:09:17;;;;;;;27.42;18.88;;;22.40;80.10;;;;;;5073887;28;20036;-58
2022/10/09 10:11:51;;;;;;;23.27;16.33;;;22.50;79.00;;;;;;5073850;28;20094;-58
2022/10/09 10:14:17;;;;;;;23.92;18.35;;;22.40;77.50;;;;;;5073584;28;20454;-58
2022/10/09 10:16:47;;;;;;;27.63;19.77;;;22.40;77.30;;;;;;5073596;28;20145;-58
2022/10/09 10:19:34;;;;;;;21.55;16.33;;;22.40;78.00;;;;;;5074023;28;20035;-58
2022/10/09 10:22:21;;;;;;;22.15;15.07;;;22.30;76.80;;;;;;5077507;28;20051;-58
2022/10/09 10:24:49;;;;;;;27.08;17.33;;;22.30;76.10;;;;;;5084252;28;20032;-58
2022/10/09 10:27:21;;;;;;;22.60;16.95;;;22.20;76.40;;;;;;5097757;28;20500;-58
2022/10/09 10:29:51;;;;;;;27.48;15.95;;;22.10;78.50;;;;;;5097476;28;20035;-58
2022/10/09 10:32:56;;;;;;;20.63;15.02;;;22.10;77.40;;;;;;5097462;28;20032;-58
2022/10/09 10:35:26;;;;;;;24.02;16.92;;;22.10;78.10;;;;;;5079755;28;20071;-58
2022/10/09 10:38:01;;;;;;;22.90;16.10;;;22.00;77.50;;;;;;5097567;28;20032;-58
2022/10/09 10:40:41;;;;;;;23.63;14.35;;;22.00;78.80;;;;;;5097453;28;20028;-58
2022/10/09 10:43:17;;;;;;;21.40;13.80;;;22.00;78.50;;;;;;5097485;28;20036;-58
2022/10/09 10:46:04;;;;;;;22.90;14.95;;;22.00;76.90;;;;;;5090435;28;20269;-58
2022/10/09 10:48:36;;;;;;;16.52;13.80;;;22.20;77.70;;;;;;5077146;28;20077;-58
2022/10/09 10:51:21;;;;;;;21.73;14.32;;;22.70;77.50;;;;;;5076988;28;20554;-58
2022/10/09 10:54:08;;;;;;;22.75;16.02;;;23.20;77.10;;;;;;5076679;28;20117;-58
2022/10/09 10:57:06;;;;;;;24.13;15.70;;;23.40;74.10;;;;;;5076910;28;20549;-58
2022/10/09 10:59:44;;;;;;;23.88;17.00;;;23.50;74.00;;;;;;5076806;28;20025;-58
2022/10/09 11:02:28;;;;;;;23.85;16.15;;;23.80;73.10;;;;;;5076799;28;20024;-58
2022/10/09 11:05:35;;;;;;;29.58;17.17;;;23.80;72.20;;;;;;5076699;28;20064;-58
2022/10/09 11:08:14;;;;;;;19.98;14.50;;;23.40;71.90;;;;;;4995017;28;20034;-58
2022/10/09 11:10:55;;;;;;;29.35;17.25;;;23.20;72.60;;;;;;4994919;28;20165;-58
2022/10/09 11:13:45;;;;;;;25.65;16.38;;;22.90;70.80;;;;;;4994544;28;20508;-58
2022/10/09 11:16:40;;;;;;;19.38;14.93;;;22.60;75.90;;;;;;4994988;28;20038;-58
2022/10/09 11:19:21;;;;;;;22.85;15.70;;;22.30;78.20;;;;;;4994647;28;20568;-58
2022/10/09 11:22:18;;;;;;;20.67;16.60;;;22.00;78.20;;;;;;4994665;28;20030;-58
2022/10/09 11:25:06;;;;;;;22.40;16.27;;;22.00;80.00;;;;;;4994336;28;20031;-58
2022/10/09 11:27:37;;;;;;;22.70;15.73;;;21.70;83.10;;;;;;4994430;28;20081;-58
2022/10/09 11:30:09;;;;;;;23.05;15.52;;;21.50;85.50;;;;;;4994047;28;20539;-58
2022/10/09 11:32:44;;;;;;;21.30;15.10;;;21.50;89.40;;;;;;4993736;28;20091;-58
2022/10/09 11:35:19;;;;;;;19.25;14.98;;;21.20;91.40;;;;;;4994181;28;20077;-58
2022/10/09 11:37:59;;;;;;;27.48;19.45;;;21.20;92.60;;;;;;4999916;28;20512;-58
2022/10/09 11:40:39;;;;;;;24.73;20.60;;;21.20;90.30;;;;;;5076135;28;20025;-58
2022/10/09 11:43:17;;;;;;;26.27;19.98;;;21.30;89.40;;;;;;5075922;28;20032;-58
2022/10/09 11:45:49;;;;;;;27.27;20.67;;;21.40;90.00;;;;;;5075886;28;20478;-58
2022/10/09 11:48:34;;;;;;;28.02;21.48;;;21.30;89.00;;;;;;5075854;28;20453;-58
2022/10/09 11:51:08;;;;;;;27.85;22.20;;;21.30;89.70;;;;;;5075847;28;20029;-58
2022/10/09 11:53:37;;;;;;;30.83;23.80;;;21.40;90.10;;;;;;5075588;28;20028;-58
2022/10/09 11:56:06;;;;;;;33.90;25.58;;;21.40;87.70;;;;;;5075654;28;20039;-58
2022/10/09 11:58:32;;;;;;;34.70;26.40;;;21.50;89.00;;;;;;5075458;28;20394;-58
2022/10/09 12:01:20;;;;;;;34.03;25.85;;;20.90;89.60;;;;;;5075730;28;20505;-58
2022/10/09 12:03:59;;;;;;;33.75;23.88;;;21.60;90.00;;;;;;5075739;28;20029;-58
2022/10/09 12:06:25;;;;;;;31.92;23.10;;;22.10;86.50;;;;;;5075532;28;20039;-57
2022/10/09 12:08:59;;;;;;;20.23;15.95;;;22.80;81.80;;;;;;5075208;28;20029;-58
2022/10/09 12:11:25;;;;;;;26.65;17.27;;;22.60;75.40;;;;;;5075317;28;20032;-58
2022/10/09 12:13:58;;;;;;;22.83;16.40;;;23.30;76.10;;;;;;5075140;28;20501;-58
2022/10/09 12:16:43;;;;;;;21.25;16.30;;;24.00;75.00;;;;;;5075252;28;20032;-58
2022/10/09 12:19:21;;;;;;;26.17;17.65;;;24.30;72.00;;;;;;5075151;28;20417;-58
2022/10/09 12:21:54;;;;;;;24.77;18.95;;;23.80;69.50;;;;;;5075115;28;20494;-58
2022/10/09 12:24:25;;;;;;;21.48;17.52;;;23.70;67.90;;;;;;5078063;28;20020;-58
2022/10/09 12:26:54;;;;;;;25.98;18.33;;;23.90;68.20;;;;;;5095070;28;20545;-58
2022/10/09 12:29:39;;;;;;;30.50;18.90;;;23.90;68.80;;;;;;5095309;28;20470;-58
2022/10/09 12:32:13;;;;;;;24.52;17.05;;;23.40;70.20;;;;;;5095401;28;20198;-58
2022/10/09 12:34:46;;;;;;;26.88;17.73;;;23.70;68.50;;;;;;5095209;28;20382;-58
2022/10/09 12:37:18;;;;;;;22.48;16.40;;;23.60;72.20;;;;;;5095254;28;20020;-58